createdAt,value
2019-03-17T00:00:06.541Z,31.90
2019-03-17T00:02:36.977Z,28.57
2019-03-17T00:05:04.730Z,32.70
2019-03-17T00:07:32.806Z,30.75
2019-03-17T00:10:00.770Z,32.48
2019-03-17T00:12:31.368Z,33.95
2019-03-17T00:15:05.031Z,33.40
2019-03-17T00:17:28.171Z,33.73
2019-03-17T00:19:56.228Z,38.53
2019-03-17T00:22:24.299Z,40.50
2019-03-17T00:24:54.622Z,38.42
2019-03-17T00:27:22.591Z,45.98
2019-03-17T00:29:50.460Z,42.33
2019-03-17T00:32:18.324Z,47.55
2019-03-17T00:34:46.187Z,42.08
2019-03-17T00:37:14.067Z,43.25
2019-03-17T00:39:41.920Z,49.05
2019-03-17T00:42:09.788Z,42.65
2019-03-17T00:44:37.550Z,45.85
2019-03-17T00:47:05.312Z,43.75
2019-03-17T00:49:33.178Z,48.15
2019-03-17T00:52:01.048Z,48.70
2019-03-17T00:54:29.432Z,43.05
2019-03-17T00:56:57.396Z,44.67
2019-03-17T00:59:25.265Z,43.90
2019-03-17T01:01:53.640Z,44.65
2019-03-17T01:04:21.609Z,50.35
2019-03-17T01:06:49.477Z,45.58
2019-03-17T01:09:17.542Z,40.38
2019-03-17T01:11:45.312Z,41.48
2019-03-17T01:14:13.169Z,42.15
2019-03-17T01:16:40.938Z,41.00
2019-03-17T01:19:08.801Z,40.38
2019-03-17T01:21:36.670Z,43.87
2019-03-17T01:24:04.434Z,41.70
2019-03-17T01:26:32.195Z,35.75
2019-03-17T01:28:59.956Z,36.93
2019-03-17T01:31:27.724Z,33.18
2019-03-17T01:33:55.487Z,34.60
2019-03-17T01:36:23.350Z,32.85
2019-03-17T01:38:51.321Z,33.58
2019-03-17T01:41:19.088Z,38.13
2019-03-17T01:43:46.949Z,33.95
2019-03-17T01:46:14.712Z,37.35
2019-03-17T01:48:42.477Z,34.58
2019-03-17T01:51:10.348Z,30.17
2019-03-17T01:53:39.034Z,29.57
2019-03-17T01:56:06.689Z,29.25
2019-03-17T01:58:34.558Z,29.72
2019-03-17T02:01:02.941Z,28.45
2019-03-17T02:03:30.901Z,28.02
2019-03-17T02:05:58.664Z,33.15
2019-03-17T02:08:26.432Z,29.37
2019-03-17T02:10:54.192Z,29.25
2019-03-17T02:13:22.264Z,32.95
2019-03-17T02:15:50.030Z,32.83
2019-03-17T02:18:17.794Z,30.80
2019-03-17T02:20:45.564Z,31.85
2019-03-17T02:23:13.317Z,29.85
2019-03-17T02:25:41.083Z,30.65
2019-03-17T02:28:08.849Z,29.02
2019-03-17T02:30:36.610Z,29.23
2019-03-17T02:33:04.376Z,30.27
2019-03-17T02:35:39.301Z,34.70
2019-03-17T02:38:02.160Z,29.57
2019-03-17T02:40:29.917Z,28.83
2019-03-17T02:42:57.795Z,29.07
2019-03-17T02:45:25.549Z,31.45
2019-03-17T02:47:53.319Z,30.68
2019-03-17T02:50:21.078Z,26.25
2019-03-17T02:52:49.456Z,29.00
2019-03-17T02:55:17.123Z,35.03
2019-03-17T02:57:44.891Z,27.52
2019-03-17T03:00:12.643Z,30.65
2019-03-17T03:02:40.942Z,28.20
2019-03-17T03:05:09.712Z,30.23
2019-03-17T03:07:37.375Z,27.82
2019-03-17T03:10:05.159Z,27.77
2019-03-17T03:12:32.894Z,29.65
2019-03-17T03:15:00.658Z,30.52
2019-03-17T03:17:28.427Z,30.30
2019-03-17T03:19:56.189Z,28.80
2019-03-17T03:22:23.844Z,29.70
2019-03-17T03:24:51.620Z,28.27
2019-03-17T03:27:20.303Z,35.58
2019-03-17T03:29:48.064Z,30.12
2019-03-17T03:32:15.973Z,31.15
2019-03-17T03:34:44.024Z,29.18
2019-03-17T03:37:11.970Z,32.10
2019-03-17T03:39:39.846Z,30.57
2019-03-17T03:42:07.599Z,30.35
2019-03-17T03:44:35.358Z,31.57
2019-03-17T03:47:03.147Z,27.10
2019-03-17T03:49:30.889Z,29.72
2019-03-17T03:51:59.061Z,28.35
2019-03-17T03:54:27.539Z,27.93
2019-03-17T03:56:55.713Z,26.93
2019-03-17T03:59:23.479Z,25.97
2019-03-17T04:01:51.962Z,28.95
2019-03-17T04:04:19.936Z,27.90
2019-03-17T04:06:47.798Z,26.97
2019-03-17T04:09:15.565Z,28.35
2019-03-17T04:11:43.426Z,26.95
2019-03-17T04:14:11.192Z,26.95
2019-03-17T04:16:38.962Z,24.77
2019-03-17T04:19:06.724Z,25.75
2019-03-17T04:21:34.486Z,22.52
2019-03-17T04:24:02.238Z,23.15
2019-03-17T04:26:30.218Z,23.47
2019-03-17T04:28:58.079Z,22.77
2019-03-17T04:31:25.848Z,22.93
2019-03-17T04:33:53.609Z,24.23
2019-03-17T04:36:21.568Z,20.88
2019-03-17T04:38:50.154Z,24.40
2019-03-17T04:41:18.127Z,26.65
2019-03-17T04:43:45.991Z,23.25
2019-03-17T04:46:13.855Z,25.37
2019-03-17T04:48:41.865Z,21.20
2019-03-17T04:51:09.896Z,21.73
2019-03-17T04:53:38.374Z,22.52
2019-03-17T04:56:06.141Z,22.70
2019-03-17T04:58:34.209Z,22.73
2019-03-17T05:01:02.591Z,20.55
2019-03-17T05:03:30.452Z,26.02
2019-03-17T05:05:58.317Z,20.35
2019-03-17T05:08:26.292Z,21.02
2019-03-17T05:10:54.664Z,21.20
2019-03-17T05:13:22.634Z,21.20
2019-03-17T05:15:50.605Z,17.98
2019-03-17T05:18:18.571Z,15.72
2019-03-17T05:20:46.542Z,18.75
2019-03-17T05:23:14.524Z,19.27
2019-03-17T05:25:42.581Z,18.62
2019-03-17T05:28:10.551Z,18.30
2019-03-17T05:30:38.517Z,22.48
2019-03-17T05:33:06.486Z,21.10
2019-03-17T05:35:34.455Z,15.72
2019-03-17T05:38:02.425Z,17.45
2019-03-17T05:40:30.497Z,14.28
2019-03-17T05:42:58.462Z,16.10
2019-03-17T05:45:26.532Z,16.23
2019-03-17T05:47:54.408Z,14.65
2019-03-17T05:50:22.369Z,17.30
2019-03-17T05:52:51.460Z,15.03
2019-03-17T05:55:19.330Z,16.90
2019-03-17T05:57:47.397Z,14.85
2019-03-17T06:00:17.008Z,16.80
2019-03-17T06:02:45.385Z,14.50
2019-03-17T06:05:13.043Z,15.80
2019-03-17T06:07:40.744Z,14.75
2019-03-17T06:10:08.678Z,22.07
2019-03-17T06:12:36.643Z,14.98
2019-03-17T06:15:09.841Z,12.90
2019-03-17T06:17:37.407Z,15.40
2019-03-17T06:20:08.128Z,16.82
2019-03-17T06:22:35.785Z,22.20
2019-03-17T06:25:07.752Z,16.25
2019-03-17T06:27:35.517Z,16.30
2019-03-17T06:30:13.323Z,15.90
2019-03-17T06:32:41.289Z,14.55
2019-03-17T06:35:09.360Z,15.78
2019-03-17T06:37:37.430Z,16.87
2019-03-17T06:40:11.003Z,16.45
2019-03-17T06:42:38.486Z,14.43
2019-03-17T06:45:08.188Z,17.55
2019-03-17T06:47:35.963Z,14.18
2019-03-17T06:50:07.911Z,17.05
2019-03-17T06:52:35.886Z,16.97
2019-03-17T06:55:07.292Z,18.05
2019-03-17T06:57:34.995Z,15.68
2019-03-17T07:00:05.629Z,15.25
2019-03-17T07:02:33.592Z,14.70
2019-03-17T07:05:01.464Z,16.57
2019-03-17T07:07:29.533Z,19.67
2019-03-17T07:09:57.604Z,15.72
2019-03-17T07:12:25.671Z,19.20
2019-03-17T07:14:53.645Z,13.10
2019-03-17T07:17:21.620Z,14.05
2019-03-17T07:19:49.580Z,15.00
2019-03-17T07:22:17.649Z,11.88
2019-03-17T07:24:45.617Z,12.28
2019-03-17T07:27:14.610Z,12.47
2019-03-17T07:29:42.579Z,13.83
2019-03-17T07:32:10.503Z,9.93
2019-03-17T07:34:38.208Z,9.00
2019-03-17T07:37:06.182Z,10.28
2019-03-17T07:39:34.150Z,9.13
2019-03-17T07:42:01.913Z,9.88
2019-03-17T07:44:29.677Z,12.50
2019-03-17T07:46:57.536Z,7.67
2019-03-17T07:49:25.413Z,11.08
2019-03-17T07:51:53.473Z,8.38
2019-03-17T07:54:21.853Z,8.68
2019-03-17T07:56:49.414Z,6.90
2019-03-17T07:59:17.899Z,7.80
2019-03-17T08:01:46.478Z,7.85
2019-03-17T08:04:14.248Z,8.20
2019-03-17T08:06:42.004Z,8.10
2019-03-17T08:09:09.779Z,13.10
2019-03-17T08:11:37.738Z,9.93
2019-03-17T08:14:05.703Z,9.95
2019-03-17T08:16:33.475Z,10.03
2019-03-17T08:19:02.671Z,13.50
2019-03-17T08:21:30.842Z,11.10
2019-03-17T08:23:58.885Z,9.60
2019-03-17T08:26:26.676Z,7.85
2019-03-17T08:28:54.436Z,9.48
2019-03-17T08:31:22.207Z,10.63
2019-03-17T08:33:50.175Z,9.65
2019-03-17T08:36:18.565Z,9.28
2019-03-17T08:38:46.631Z,12.40
2019-03-17T08:41:14.488Z,10.48
2019-03-17T08:43:53.834Z,10.45
2019-03-17T08:46:12.373Z,9.38
2019-03-17T08:48:40.237Z,9.00
2019-03-17T08:51:07.998Z,9.90
2019-03-17T08:53:36.180Z,12.47
2019-03-17T08:56:04.063Z,9.40
2019-03-17T08:58:31.857Z,12.10
2019-03-17T09:01:01.310Z,11.25
2019-03-17T09:03:29.174Z,9.30
2019-03-17T09:05:56.936Z,10.98
2019-03-17T09:08:34.490Z,10.80
2019-03-17T09:10:55.530Z,14.60
2019-03-17T09:13:23.509Z,10.60
2019-03-17T09:15:51.488Z,8.85
2019-03-17T09:18:19.439Z,9.23
2019-03-17T09:20:47.217Z,7.40
2019-03-17T09:23:15.073Z,7.58
2019-03-17T09:25:42.939Z,6.47
2019-03-17T09:28:10.599Z,6.72
2019-03-17T09:30:38.359Z,10.23
2019-03-17T09:33:06.328Z,10.58
2019-03-17T09:35:34.505Z,10.70
2019-03-17T09:38:02.469Z,13.32
2019-03-17T09:40:30.544Z,17.12
2019-03-17T09:42:58.515Z,17.70
2019-03-17T09:45:26.487Z,12.58
2019-03-17T09:47:54.447Z,9.50
2019-03-17T09:50:23.135Z,11.48
2019-03-17T09:52:51.714Z,10.25
2019-03-17T09:55:19.686Z,9.73
2019-03-17T09:57:47.449Z,11.53
2019-03-17T10:00:18.094Z,13.62
2019-03-17T10:02:46.460Z,11.40
2019-03-17T10:05:14.224Z,11.95
2019-03-17T10:07:42.197Z,14.60
2019-03-17T10:10:15.637Z,11.97
2019-03-17T10:12:43.560Z,13.38
2019-03-17T10:15:16.641Z,13.62
2019-03-17T10:17:44.103Z,21.55
2019-03-17T10:20:17.710Z,13.05
2019-03-17T10:22:45.360Z,10.13
2019-03-17T10:25:13.945Z,10.13
2019-03-17T10:27:41.916Z,9.48
2019-03-17T10:30:18.381Z,10.45
2019-03-17T10:32:46.348Z,10.88
2019-03-17T10:35:14.316Z,11.08
2019-03-17T10:37:42.903Z,9.53
2019-03-17T10:40:13.845Z,7.30
2019-03-17T10:42:41.608Z,4.33
2019-03-17T10:45:10.700Z,3.67
2019-03-17T10:47:38.464Z,4.85
2019-03-17T10:50:20.257Z,3.52
2019-03-17T10:52:48.427Z,7.12
2019-03-17T10:55:17.014Z,6.17
2019-03-17T10:57:44.778Z,5.62
2019-03-17T11:00:19.692Z,6.20
2019-03-17T11:02:47.980Z,6.22
2019-03-17T11:05:16.880Z,9.58
2019-03-17T11:07:44.739Z,7.67
2019-03-17T11:10:13.012Z,6.62
2019-03-17T11:12:40.676Z,7.03
2019-03-17T11:15:19.909Z,8.20
2019-03-17T11:17:48.387Z,6.12
2019-03-17T11:20:16.147Z,6.10
2019-03-17T11:22:43.825Z,3.52
2019-03-17T11:25:15.466Z,3.33
2019-03-17T11:27:43.022Z,6.28
2019-03-17T11:30:13.241Z,2.62
2019-03-17T11:32:41.115Z,2.62
2019-03-17T11:35:09.286Z,4.85
2019-03-17T11:37:37.252Z,7.55
2019-03-17T11:40:11.676Z,2.65
2019-03-17T11:42:39.436Z,3.30
2019-03-17T11:45:10.272Z,4.08
2019-03-17T11:47:37.930Z,4.65
2019-03-17T11:50:08.571Z,4.05
2019-03-17T11:52:36.331Z,3.70
2019-03-17T11:55:06.982Z,5.08
2019-03-17T11:57:34.622Z,5.28
2019-03-17T12:00:05.773Z,6.45
2019-03-17T12:02:33.636Z,7.05
2019-03-17T12:05:01.188Z,6.87
2019-03-17T12:07:28.956Z,6.70
2019-03-17T12:09:56.715Z,7.30
2019-03-17T12:12:24.481Z,7.70
2019-03-17T12:14:52.242Z,8.03
2019-03-17T12:17:19.907Z,7.70
2019-03-17T12:19:47.672Z,6.72
2019-03-17T12:22:15.437Z,6.20
2019-03-17T12:24:43.515Z,6.35
2019-03-17T12:27:11.884Z,5.87
2019-03-17T12:29:39.956Z,8.60
2019-03-17T12:32:07.619Z,5.00
2019-03-17T12:34:35.481Z,4.80
2019-03-17T12:37:03.345Z,5.25
2019-03-17T12:39:31.128Z,4.97
2019-03-17T12:41:58.870Z,5.83
2019-03-17T12:44:26.638Z,5.33
2019-03-17T12:46:54.604Z,7.42
2019-03-17T12:49:22.987Z,5.97
2019-03-17T12:51:50.848Z,6.75
2019-03-17T12:54:19.123Z,8.08
2019-03-17T12:56:47.708Z,6.55
2019-03-17T12:59:15.472Z,4.70
2019-03-17T13:01:43.646Z,7.67
2019-03-17T13:04:12.130Z,6.60
2019-03-17T13:06:39.789Z,6.75
2019-03-17T13:09:07.451Z,5.75
2019-03-17T13:11:35.210Z,4.85
2019-03-17T13:14:03.082Z,4.10
2019-03-17T13:16:30.948Z,6.33
2019-03-17T13:18:58.813Z,6.75
2019-03-17T13:21:26.579Z,5.42
2019-03-17T13:23:54.346Z,4.17
2019-03-17T13:26:22.103Z,5.78
2019-03-17T13:28:50.788Z,4.42
2019-03-17T13:31:20.591Z,6.28
2019-03-17T13:33:47.961Z,6.30
2019-03-17T13:36:15.721Z,7.28
2019-03-17T13:38:43.597Z,6.03
2019-03-17T13:41:11.453Z,8.33
2019-03-17T13:43:39.212Z,5.92
2019-03-17T13:46:06.988Z,5.35
2019-03-17T13:48:34.749Z,6.20
2019-03-17T13:51:02.615Z,5.60
2019-03-17T13:53:30.888Z,7.10
2019-03-17T13:55:58.453Z,7.35
2019-03-17T13:58:26.207Z,5.05
2019-03-17T14:00:54.991Z,10.68
2019-03-17T14:03:22.651Z,6.75
2019-03-17T14:05:50.420Z,7.67
2019-03-17T14:08:18.595Z,5.08
2019-03-17T14:10:46.455Z,7.10
2019-03-17T14:13:14.324Z,6.17
2019-03-17T14:15:42.088Z,6.62
2019-03-17T14:18:09.861Z,3.70
2019-03-17T14:20:38.536Z,5.35
2019-03-17T14:23:06.306Z,5.08
2019-03-17T14:25:36.115Z,5.33
2019-03-17T14:28:03.669Z,5.97
2019-03-17T14:30:31.435Z,5.85
2019-03-17T14:33:00.627Z,4.08
2019-03-17T14:35:29.425Z,4.30
2019-03-17T14:37:57.334Z,6.37
2019-03-17T14:40:25.052Z,4.37
2019-03-17T14:42:55.205Z,5.15
2019-03-17T14:45:22.325Z,9.00
2019-03-17T14:47:51.109Z,9.03
2019-03-17T14:50:20.312Z,12.20
2019-03-17T14:52:49.515Z,5.62
2019-03-17T14:55:17.473Z,5.15
2019-03-17T14:57:45.245Z,5.92
2019-03-17T15:00:18.324Z,5.00
2019-03-17T15:02:46.702Z,4.15
2019-03-17T15:05:14.463Z,5.30
2019-03-17T15:07:42.227Z,4.75
2019-03-17T15:10:21.773Z,5.90
2019-03-17T15:12:49.527Z,8.95
2019-03-17T15:15:18.336Z,8.08
2019-03-17T15:17:45.983Z,7.37
2019-03-17T15:20:18.246Z,10.48
2019-03-17T15:22:47.190Z,8.28
2019-03-17T15:25:15.114Z,12.45
2019-03-17T15:27:43.077Z,28.47
2019-03-17T15:30:19.645Z,9.95
2019-03-17T15:32:47.312Z,12.47
2019-03-17T15:35:15.487Z,12.58
2019-03-17T15:37:43.765Z,11.18
2019-03-17T15:40:13.877Z,12.47
2019-03-17T15:42:42.045Z,19.10
2019-03-17T15:45:13.097Z,9.25
2019-03-17T15:47:40.769Z,11.68
2019-03-17T15:50:11.278Z,17.52
2019-03-17T15:52:38.940Z,13.88
2019-03-17T15:55:09.735Z,13.72
2019-03-17T15:57:37.441Z,21.55
2019-03-17T16:00:09.294Z,31.33
2019-03-17T16:05:05.846Z,25.55
2019-03-17T16:07:42.198Z,21.02
2019-03-17T16:10:06.806Z,21.90
2019-03-17T16:12:34.666Z,22.77
2019-03-17T16:15:04.788Z,14.70
2019-03-17T16:17:32.344Z,17.92
2019-03-17T16:20:00.343Z,31.60
2019-03-17T16:22:28.282Z,26.70
2019-03-17T16:24:56.249Z,16.12
2019-03-17T16:27:24.427Z,16.73
2019-03-17T16:29:52.606Z,14.43
2019-03-17T16:32:20.681Z,15.98
2019-03-17T16:34:48.745Z,14.50
2019-03-17T16:37:16.703Z,16.02
2019-03-17T16:39:44.880Z,14.18
2019-03-17T16:42:12.859Z,14.18
2019-03-17T16:44:40.822Z,14.47
2019-03-17T16:47:08.783Z,16.75
2019-03-17T16:49:36.965Z,13.18
2019-03-17T16:52:04.929Z,14.55
2019-03-17T16:54:33.923Z,17.12
2019-03-17T16:57:02.097Z,12.73
2019-03-17T16:59:30.067Z,13.72
2019-03-17T17:01:58.337Z,14.85
2019-03-17T17:04:26.414Z,14.87
2019-03-17T17:06:55.405Z,14.35
2019-03-17T17:09:23.883Z,21.90
2019-03-17T17:11:57.056Z,16.93
2019-03-17T17:14:21.764Z,19.85
2019-03-17T17:16:49.528Z,28.02
2019-03-17T17:19:17.511Z,14.20
2019-03-17T17:21:45.466Z,18.05
2019-03-17T17:24:13.433Z,22.37
2019-03-17T17:26:41.409Z,16.87
2019-03-17T17:29:11.627Z,16.40
2019-03-17T17:31:39.488Z,15.75
2019-03-17T17:34:07.456Z,18.50
2019-03-17T17:36:35.641Z,12.37
2019-03-17T17:39:06.365Z,17.07
2019-03-17T17:41:33.925Z,17.45
2019-03-17T17:44:02.001Z,17.42
2019-03-17T17:46:29.969Z,17.20
2019-03-17T17:48:58.037Z,17.75
2019-03-17T17:51:26.514Z,23.52
2019-03-17T17:53:54.995Z,17.10
2019-03-17T17:56:22.858Z,13.88
2019-03-17T17:58:50.941Z,17.00
2019-03-17T18:01:19.308Z,16.37
2019-03-17T18:03:51.455Z,12.90
2019-03-17T18:06:16.888Z,17.75
2019-03-17T18:08:45.157Z,15.53
2019-03-17T18:11:13.134Z,15.80
2019-03-17T18:13:41.202Z,18.12
2019-03-17T18:16:09.269Z,17.95
2019-03-17T18:18:37.240Z,19.52
2019-03-17T18:21:05.107Z,17.25
2019-03-17T18:23:33.483Z,17.85
2019-03-17T18:26:01.458Z,17.85
2019-03-17T18:28:29.437Z,18.65
2019-03-17T18:30:57.497Z,32.20
2019-03-17T18:33:25.665Z,19.82
2019-03-17T18:35:53.841Z,21.00
2019-03-17T18:38:22.015Z,21.90
2019-03-17T18:40:49.983Z,22.20
2019-03-17T18:43:17.856Z,23.92
2019-03-17T18:45:45.822Z,46.68
2019-03-17T18:48:13.886Z,41.83
2019-03-17T18:50:41.656Z,53.02
2019-03-17T18:53:09.950Z,60.65
2019-03-17T18:55:37.686Z,61.30
2019-03-17T18:58:05.557Z,65.87
2019-03-17T19:00:33.633Z,56.98
2019-03-17T19:03:02.421Z,57.83
2019-03-17T19:05:30.378Z,46.35
2019-03-17T19:07:58.358Z,121.57
2019-03-17T19:10:26.531Z,53.15
2019-03-17T19:12:55.116Z,56.50
2019-03-17T19:15:23.184Z,53.95
2019-03-17T19:17:51.356Z,121.80
2019-03-17T19:20:20.452Z,68.92
2019-03-17T19:22:48.416Z,57.15
2019-03-17T19:25:19.156Z,50.90
2019-03-17T19:27:47.221Z,50.67
2019-03-17T19:30:16.931Z,50.28
2019-03-17T19:32:45.102Z,52.65
2019-03-17T19:35:13.280Z,47.53
2019-03-17T19:37:41.353Z,54.25
2019-03-17T19:40:19.875Z,57.23
2019-03-17T19:42:58.049Z,58.35
2019-03-17T19:45:17.847Z,57.83
2019-03-17T19:47:45.929Z,73.12
2019-03-17T19:50:19.320Z,117.67
2019-03-17T19:52:47.203Z,90.25
2019-03-17T19:55:15.359Z,127.47
2019-03-17T19:57:43.122Z,125.22
2019-03-17T20:00:20.198Z,118.37
2019-03-17T20:02:48.781Z,115.75
2019-03-17T20:05:16.856Z,107.07
2019-03-17T20:07:44.830Z,101.35
2019-03-17T20:10:32.963Z,89.85
2019-03-17T20:13:11.044Z,72.67
2019-03-17T20:15:30.127Z,98.45
2019-03-17T20:18:00.551Z,103.85
2019-03-17T20:20:28.523Z,87.25
2019-03-17T20:22:56.490Z,92.05
2019-03-17T20:25:24.462Z,91.08
2019-03-17T20:27:52.334Z,94.17
2019-03-17T20:30:20.303Z,96.22
2019-03-17T20:32:48.268Z,93.52
2019-03-17T20:35:16.740Z,101.75
2019-03-17T20:37:46.274Z,100.92
2019-03-17T20:40:16.366Z,109.25
2019-03-17T20:42:44.609Z,105.60
2019-03-17T20:45:15.075Z,92.35
2019-03-17T20:47:42.525Z,91.92
2019-03-17T20:50:15.100Z,89.55
2019-03-17T20:52:42.556Z,92.95
2019-03-17T20:55:11.359Z,89.60
2019-03-17T20:57:39.524Z,93.12
2019-03-17T21:00:14.112Z,87.47
2019-03-17T21:02:42.112Z,85.97
2019-03-17T21:05:10.803Z,92.53
2019-03-17T21:07:39.383Z,99.15
2019-03-17T21:10:10.011Z,107.92
2019-03-17T21:12:37.880Z,102.82
2019-03-17T21:15:19.565Z,93.67
2019-03-17T21:17:47.541Z,87.00
2019-03-17T21:20:20.930Z,82.42
2019-03-17T21:22:48.898Z,84.67
2019-03-17T21:25:24.242Z,83.27
2019-03-17T21:27:52.422Z,96.37
2019-03-17T21:30:28.060Z,86.08
2019-03-17T21:32:55.831Z,93.67
2019-03-17T21:35:23.899Z,84.40
2019-03-17T21:37:51.875Z,82.42
2019-03-17T21:40:20.760Z,84.77
2019-03-17T21:42:49.032Z,76.47
2019-03-17T21:45:17.012Z,80.17
2019-03-17T21:47:45.068Z,79.85
2019-03-17T21:50:20.006Z,74.70
2019-03-17T21:52:48.204Z,81.72
2019-03-17T21:55:16.467Z,88.03
2019-03-17T21:57:44.319Z,77.37
2019-03-17T22:00:16.589Z,82.27
2019-03-17T22:02:44.867Z,77.27
2019-03-17T22:05:12.935Z,78.75
2019-03-17T22:07:49.646Z,77.67
2019-03-17T22:10:18.191Z,83.60
2019-03-17T22:12:45.953Z,77.20
2019-03-17T22:15:14.742Z,89.50
2019-03-17T22:17:42.302Z,94.87
2019-03-17T22:20:11.600Z,118.42
2019-03-17T22:22:39.157Z,114.80
2019-03-17T22:25:08.460Z,117.60
2019-03-17T22:27:36.224Z,96.82
2019-03-17T22:30:13.305Z,88.05
2019-03-17T22:32:41.171Z,99.35
2019-03-17T22:35:09.238Z,97.57
2019-03-17T22:37:37.308Z,92.70
2019-03-17T22:40:13.587Z,99.72
2019-03-17T22:42:41.748Z,105.35
2019-03-17T22:45:14.221Z,110.68
2019-03-17T22:47:42.005Z,114.57
2019-03-17T22:50:11.388Z,113.05
2019-03-17T22:52:38.944Z,106.20
2019-03-17T22:55:08.716Z,107.22
2019-03-17T22:57:43.897Z,116.05
2019-03-17T23:00:35.926Z,113.75
2019-03-17T23:03:05.438Z,113.85
2019-03-17T23:05:32.993Z,107.30
2019-03-17T23:08:00.978Z,110.85
2019-03-17T23:10:29.835Z,112.05
2019-03-17T23:12:57.719Z,120.80
2019-03-17T23:15:25.586Z,112.83
2019-03-17T23:17:53.652Z,115.82
2019-03-17T23:20:21.730Z,115.15
2019-03-17T23:22:49.793Z,112.15
2019-03-17T23:25:17.678Z,110.63
2019-03-17T23:27:45.632Z,113.03
2019-03-17T23:30:14.837Z,103.97
2019-03-17T23:32:42.392Z,102.07
2019-03-17T23:35:10.464Z,104.53
2019-03-17T23:37:38.430Z,96.40
2019-03-17T23:40:09.795Z,107.72
2019-03-17T23:42:37.435Z,107.80
2019-03-17T23:45:07.654Z,103.20
2019-03-17T23:47:35.113Z,90.65
2019-03-17T23:50:06.056Z,95.40
2019-03-17T23:52:34.944Z,89.25
2019-03-17T23:55:05.646Z,94.58
2019-03-17T23:57:33.612Z,97.60
